sensor_id;sensor_type;location;lat;lon;timestamp;P1;durP1;ratioP1;P2;durP2;ratioP2
19189;SDS011;9727;50.200;19.038;2024-03-29T00:01:11;4.60;;;2.00;;
19189;SDS011;9727;50.200;19.038;2024-03-29T00:03:38;6.03;;;2.50;;
19189;SDS011;9727;50.200;19.038;2024-03-29T00:06:04;3.63;;;1.73;;
19189;SDS011;9727;50.200;19.038;2024-03-29T00:08:30;4.80;;;1.93;;
19189;SDS011;9727;50.200;19.038;2024-03-29T00:11:04;5.90;;;2.40;;
19189;SDS011;9727;50.200;19.038;2024-03-29T00:13:31;7.20;;;2.90;;
19189;SDS011;9727;50.200;19.038;2024-03-29T00:15:57;7.40;;;3.50;;
19189;SDS011;9727;50.200;19.038;2024-03-29T00:18:23;8.07;;;5.00;;
19189;SDS011;9727;50.200;19.038;2024-03-29T00:20:48;10.20;;;5.63;;
19189;SDS011;9727;50.200;19.038;2024-03-29T00:23:14;10.00;;;5.30;;
19189;SDS011;9727;50.200;19.038;2024-03-29T00:25:40;10.70;;;6.23;;
19189;SDS011;9727;50.200;19.038;2024-03-29T00:28:05;9.83;;;6.93;;
19189;SDS011;9727;50.200;19.038;2024-03-29T00:30:32;9.97;;;7.00;;
19189;SDS011;9727;50.200;19.038;2024-03-29T00:32:58;11.10;;;8.43;;
19189;SDS011;9727;50.200;19.038;2024-03-29T00:35:24;15.13;;;11.17;;
19189;SDS011;9727;50.200;19.038;2024-03-29T00:37:49;14.77;;;11.03;;
19189;SDS011;9727;50.200;19.038;2024-03-29T00:40:15;14.60;;;9.77;;
19189;SDS011;9727;50.200;19.038;2024-03-29T00:42:41;11.17;;;7.13;;
19189;SDS011;9727;50.200;19.038;2024-03-29T00:45:07;8.93;;;6.03;;
19189;SDS011;9727;50.200;19.038;2024-03-29T00:47:35;10.10;;;6.50;;
19189;SDS011;9727;50.200;19.038;2024-03-29T00:50:00;11.53;;;8.10;;
19189;SDS011;9727;50.200;19.038;2024-03-29T00:52:26;11.50;;;8.53;;
19189;SDS011;9727;50.200;19.038;2024-03-29T00:54:53;12.67;;;8.97;;
19189;SDS011;9727;50.200;19.038;2024-03-29T00:57:18;14.23;;;10.00;;
19189;SDS011;9727;50.200;19.038;2024-03-29T00:59:44;10.50;;;8.73;;
19189;SDS011;9727;50.200;19.038;2024-03-29T01:02:09;11.17;;;8.20;;
19189;SDS011;9727;50.200;19.038;2024-03-29T01:04:36;11.80;;;8.03;;
19189;SDS011;9727;50.200;19.038;2024-03-29T01:07:02;11.87;;;6.60;;
19189;SDS011;9727;50.200;19.038;2024-03-29T01:09:28;9.53;;;5.67;;
19189;SDS011;9727;50.200;19.038;2024-03-29T01:11:53;7.20;;;4.77;;
19189;SDS011;9727;50.200;19.038;2024-03-29T01:14:19;7.87;;;4.53;;
19189;SDS011;9727;50.200;19.038;2024-03-29T01:16:45;9.67;;;4.63;;
19189;SDS011;9727;50.200;19.038;2024-03-29T01:19:10;7.77;;;3.90;;
19189;SDS011;9727;50.200;19.038;2024-03-29T01:21:37;4.40;;;3.33;;
19189;SDS011;9727;50.200;19.038;2024-03-29T01:24:03;8.00;;;3.40;;
19189;SDS011;9727;50.200;19.038;2024-03-29T01:26:29;4.47;;;3.20;;
19189;SDS011;9727;50.200;19.038;2024-03-29T01:28:55;6.40;;;3.50;;
19189;SDS011;9727;50.200;19.038;2024-03-29T01:31:21;4.43;;;3.13;;
19189;SDS011;9727;50.200;19.038;2024-03-29T01:33:47;4.53;;;3.10;;
19189;SDS011;9727;50.200;19.038;2024-03-29T01:36:16;7.30;;;3.27;;
19189;SDS011;9727;50.200;19.038;2024-03-29T01:38:43;6.73;;;2.77;;
19189;SDS011;9727;50.200;19.038;2024-03-29T01:41:09;6.67;;;3.30;;
19189;SDS011;9727;50.200;19.038;2024-03-29T01:43:34;3.77;;;2.90;;
19189;SDS011;9727;50.200;19.038;2024-03-29T01:46:01;3.87;;;2.80;;
19189;SDS011;9727;50.200;19.038;2024-03-29T01:48:28;4.40;;;2.73;;
19189;SDS011;9727;50.200;19.038;2024-03-29T01:50:55;4.50;;;2.97;;
19189;SDS011;9727;50.200;19.038;2024-03-29T01:53:22;7.00;;;3.63;;
19189;SDS011;9727;50.200;19.038;2024-03-29T01:55:52;6.57;;;3.93;;
19189;SDS011;9727;50.200;19.038;2024-03-29T01:58:19;6.43;;;3.67;;
19189;SDS011;9727;50.200;19.038;2024-03-29T02:00:48;6.97;;;3.50;;
19189;SDS011;9727;50.200;19.038;2024-03-29T02:03:19;9.60;;;4.00;;
19189;SDS011;9727;50.200;19.038;2024-03-29T02:05:46;4.90;;;3.17;;
19189;SDS011;9727;50.200;19.038;2024-03-29T02:08:16;6.57;;;3.77;;
19189;SDS011;9727;50.200;19.038;2024-03-29T02:10:43;5.13;;;3.73;;
19189;SDS011;9727;50.200;19.038;2024-03-29T02:13:13;7.20;;;3.70;;
19189;SDS011;9727;50.200;19.038;2024-03-29T02:15:40;8.63;;;3.70;;
19189;SDS011;9727;50.200;19.038;2024-03-29T02:18:07;5.87;;;3.30;;
19189;SDS011;9727;50.200;19.038;2024-03-29T02:20:34;6.70;;;3.77;;
19189;SDS011;9727;50.200;19.038;2024-03-29T02:23:02;5.57;;;3.20;;
19189;SDS011;9727;50.200;19.038;2024-03-29T02:25:33;6.87;;;3.37;;
19189;SDS011;9727;50.200;19.038;2024-03-29T02:28:00;5.53;;;3.33;;
19189;SDS011;9727;50.200;19.038;2024-03-29T02:30:28;3.90;;;2.90;;
19189;SDS011;9727;50.200;19.038;2024-03-29T02:32:55;3.83;;;2.77;;
19189;SDS011;9727;50.200;19.038;2024-03-29T02:35:22;4.33;;;2.80;;
19189;SDS011;9727;50.200;19.038;2024-03-29T02:37:48;4.20;;;2.60;;
19189;SDS011;9727;50.200;19.038;2024-03-29T02:40:16;5.87;;;2.93;;
19189;SDS011;9727;50.200;19.038;2024-03-29T02:42:44;4.67;;;2.80;;
19189;SDS011;9727;50.200;19.038;2024-03-29T02:45:11;4.50;;;2.50;;
19189;SDS011;9727;50.200;19.038;2024-03-29T02:47:43;3.23;;;2.40;;
19189;SDS011;9727;50.200;19.038;2024-03-29T02:50:13;4.37;;;2.50;;
19189;SDS011;9727;50.200;19.038;2024-03-29T02:52:39;6.53;;;2.90;;
19189;SDS011;9727;50.200;19.038;2024-03-29T02:55:06;5.03;;;2.97;;
19189;SDS011;9727;50.200;19.038;2024-03-29T02:57:32;7.97;;;6.47;;
19189;SDS011;9727;50.200;19.038;2024-03-29T03:00:00;9.13;;;6.70;;
19189;SDS011;9727;50.200;19.038;2024-03-29T03:02:25;11.43;;;9.10;;
19189;SDS011;9727;50.200;19.038;2024-03-29T03:04:52;12.03;;;8.87;;
19189;SDS011;9727;50.200;19.038;2024-03-29T03:07:17;15.47;;;9.93;;
19189;SDS011;9727;50.200;19.038;2024-03-29T03:10:02;12.53;;;9.50;;
19189;SDS011;9727;50.200;19.038;2024-03-29T03:12:45;11.47;;;9.23;;
19189;SDS011;9727;50.200;19.038;2024-03-29T03:15:16;12.60;;;9.20;;
19189;SDS011;9727;50.200;19.038;2024-03-29T03:17:43;13.33;;;9.80;;
19189;SDS011;9727;50.200;19.038;2024-03-29T03:20:10;14.67;;;9.90;;
19189;SDS011;9727;50.200;19.038;2024-03-29T03:22:39;15.13;;;11.77;;
19189;SDS011;9727;50.200;19.038;2024-03-29T03:25:05;14.97;;;11.57;;
19189;SDS011;9727;50.200;19.038;2024-03-29T03:27:31;14.63;;;9.73;;
19189;SDS011;9727;50.200;19.038;2024-03-29T03:29:58;11.90;;;8.80;;
19189;SDS011;9727;50.200;19.038;2024-03-29T03:32:24;10.30;;;8.53;;
19189;SDS011;9727;50.200;19.038;2024-03-29T03:34:51;13.13;;;10.27;;
19189;SDS011;9727;50.200;19.038;2024-03-29T03:37:17;13.33;;;10.37;;
19189;SDS011;9727;50.200;19.038;2024-03-29T03:39:44;12.93;;;10.27;;
19189;SDS011;9727;50.200;19.038;2024-03-29T03:42:09;14.43;;;11.20;;
19189;SDS011;9727;50.200;19.038;2024-03-29T03:44:36;11.43;;;9.37;;
19189;SDS011;9727;50.200;19.038;2024-03-29T03:47:02;11.37;;;8.20;;
19189;SDS011;9727;50.200;19.038;2024-03-29T03:49:30;10.37;;;6.50;;
19189;SDS011;9727;50.200;19.038;2024-03-29T03:51:55;9.43;;;6.90;;
19189;SDS011;9727;50.200;19.038;2024-03-29T03:54:23;7.53;;;6.17;;
19189;SDS011;9727;50.200;19.038;2024-03-29T03:56:48;10.07;;;7.80;;
19189;SDS011;9727;50.200;19.038;2024-03-29T03:59:16;11.07;;;8.93;;
19189;SDS011;9727;50.200;19.038;2024-03-29T04:01:42;11.93;;;8.77;;
19189;SDS011;9727;50.200;19.038;2024-03-29T04:04:08;8.37;;;5.80;;
19189;SDS011;9727;50.200;19.038;2024-03-29T04:06:35;4.50;;;3.93;;
19189;SDS011;9727;50.200;19.038;2024-03-29T04:09:02;5.10;;;3.90;;
19189;SDS011;9727;50.200;19.038;2024-03-29T04:11:28;4.83;;;3.50;;
19189;SDS011;9727;50.200;19.038;2024-03-29T04:13:54;7.23;;;4.77;;
19189;SDS011;9727;50.200;19.038;2024-03-29T04:16:20;7.60;;;5.57;;
19189;SDS011;9727;50.200;19.038;2024-03-29T04:18:46;8.53;;;5.93;;
19189;SDS011;9727;50.200;19.038;2024-03-29T04:21:13;8.00;;;6.43;;
19189;SDS011;9727;50.200;19.038;2024-03-29T04:23:41;10.60;;;6.80;;
19189;SDS011;9727;50.200;19.038;2024-03-29T04:26:07;7.77;;;6.80;;
19189;SDS011;9727;50.200;19.038;2024-03-29T04:28:33;7.80;;;6.30;;
19189;SDS011;9727;50.200;19.038;2024-03-29T04:31:00;7.60;;;6.00;;
19189;SDS011;9727;50.200;19.038;2024-03-29T04:33:27;7.77;;;6.07;;
19189;SDS011;9727;50.200;19.038;2024-03-29T04:35:53;7.93;;;5.90;;
19189;SDS011;9727;50.200;19.038;2024-03-29T04:38:20;11.80;;;5.67;;
19189;SDS011;9727;50.200;19.038;2024-03-29T04:40:48;7.67;;;4.93;;
19189;SDS011;9727;50.200;19.038;2024-03-29T04:43:15;8.13;;;4.63;;
19189;SDS011;9727;50.200;19.038;2024-03-29T04:45:42;9.60;;;5.20;;
19189;SDS011;9727;50.200;19.038;2024-03-29T04:48:09;6.93;;;4.67;;
19189;SDS011;9727;50.200;19.038;2024-03-29T04:50:36;7.03;;;4.47;;
19189;SDS011;9727;50.200;19.038;2024-03-29T04:53:02;7.50;;;4.10;;
19189;SDS011;9727;50.200;19.038;2024-03-29T04:55:29;7.30;;;4.53;;
19189;SDS011;9727;50.200;19.038;2024-03-29T04:57:57;7.60;;;5.13;;
19189;SDS011;9727;50.200;19.038;2024-03-29T05:00:24;6.47;;;3.67;;
19189;SDS011;9727;50.200;19.038;2024-03-29T05:02:54;7.37;;;3.47;;
19189;SDS011;9727;50.200;19.038;2024-03-29T05:05:20;4.03;;;3.27;;
19189;SDS011;9727;50.200;19.038;2024-03-29T05:07:47;4.43;;;2.80;;
19189;SDS011;9727;50.200;19.038;2024-03-29T05:10:14;4.50;;;2.83;;
19189;SDS011;9727;50.200;19.038;2024-03-29T05:12:41;4.17;;;3.00;;
19189;SDS011;9727;50.200;19.038;2024-03-29T05:15:09;6.37;;;2.83;;
19189;SDS011;9727;50.200;19.038;2024-03-29T05:17:39;7.03;;;3.80;;
19189;SDS011;9727;50.200;19.038;2024-03-29T05:20:07;5.23;;;4.20;;
19189;SDS011;9727;50.200;19.038;2024-03-29T05:22:37;9.23;;;5.83;;
19189;SDS011;9727;50.200;19.038;2024-03-29T05:25:05;11.83;;;8.00;;
19189;SDS011;9727;50.200;19.038;2024-03-29T05:27:32;11.20;;;8.63;;
19189;SDS011;9727;50.200;19.038;2024-03-29T05:29:59;11.57;;;8.90;;
19189;SDS011;9727;50.200;19.038;2024-03-29T05:32:27;11.30;;;8.97;;
19189;SDS011;9727;50.200;19.038;2024-03-29T05:34:54;9.87;;;7.20;;
19189;SDS011;9727;50.200;19.038;2024-03-29T05:37:20;11.13;;;7.47;;
19189;SDS011;9727;50.200;19.038;2024-03-29T05:39:48;9.43;;;7.90;;
19189;SDS011;9727;50.200;19.038;2024-03-29T05:42:16;9.17;;;6.57;;
19189;SDS011;9727;50.200;19.038;2024-03-29T05:44:43;10.67;;;8.67;;
19189;SDS011;9727;50.200;19.038;2024-03-29T05:47:09;13.93;;;10.27;;
19189;SDS011;9727;50.200;19.038;2024-03-29T05:49:37;12.60;;;9.13;;
19189;SDS011;9727;50.200;19.038;2024-03-29T05:52:04;10.53;;;8.00;;
19189;SDS011;9727;50.200;19.038;2024-03-29T05:54:30;7.33;;;5.40;;
19189;SDS011;9727;50.200;19.038;2024-03-29T05:56:57;6.47;;;4.07;;
19189;SDS011;9727;50.200;19.038;2024-03-29T05:59:23;5.50;;;2.93;;
19189;SDS011;9727;50.200;19.038;2024-03-29T06:01:56;2.70;;;2.00;;
19189;SDS011;9727;50.200;19.038;2024-03-29T06:04:23;4.33;;;2.10;;
19189;SDS011;9727;50.200;19.038;2024-03-29T06:06:58;3.13;;;1.70;;
19189;SDS011;9727;50.200;19.038;2024-03-29T06:09:25;3.73;;;1.57;;
19189;SDS011;9727;50.200;19.038;2024-03-29T06:11:52;2.97;;;1.90;;
19189;SDS011;9727;50.200;19.038;2024-03-29T06:14:19;4.67;;;1.87;;
19189;SDS011;9727;50.200;19.038;2024-03-29T06:17:04;3.80;;;1.93;;
19189;SDS011;9727;50.200;19.038;2024-03-29T06:19:48;2.60;;;1.60;;
19189;SDS011;9727;50.200;19.038;2024-03-29T06:22:22;1.93;;;1.50;;
19189;SDS011;9727;50.200;19.038;2024-03-29T06:24:49;4.57;;;1.50;;
19189;SDS011;9727;50.200;19.038;2024-03-29T06:27:19;3.30;;;1.30;;
19189;SDS011;9727;50.200;19.038;2024-03-29T06:29:47;3.00;;;1.30;;
19189;SDS011;9727;50.200;19.038;2024-03-29T06:32:14;2.43;;;1.20;;
19189;SDS011;9727;50.200;19.038;2024-03-29T06:34:43;2.27;;;1.07;;
19189;SDS011;9727;50.200;19.038;2024-03-29T06:37:10;4.73;;;1.27;;
19189;SDS011;9727;50.200;19.038;2024-03-29T06:39:38;1.30;;;1.10;;
19189;SDS011;9727;50.200;19.038;2024-03-29T06:42:04;2.17;;;1.20;;
19189;SDS011;9727;50.200;19.038;2024-03-29T06:44:32;1.10;;;0.80;;
19189;SDS011;9727;50.200;19.038;2024-03-29T06:46:59;2.43;;;1.03;;
19189;SDS011;9727;50.200;19.038;2024-03-29T06:49:26;2.10;;;1.10;;
19189;SDS011;9727;50.200;19.038;2024-03-29T06:51:52;1.90;;;1.00;;
19189;SDS011;9727;50.200;19.038;2024-03-29T06:54:21;1.73;;;0.73;;
19189;SDS011;9727;50.200;19.038;2024-03-29T06:56:56;1.27;;;0.80;;
19189;SDS011;9727;50.200;19.038;2024-03-29T06:59:23;2.30;;;0.90;;
19189;SDS011;9727;50.200;19.038;2024-03-29T07:01:51;3.60;;;1.20;;
19189;SDS011;9727;50.200;19.038;2024-03-29T07:04:24;2.03;;;1.10;;
19189;SDS011;9727;50.200;19.038;2024-03-29T07:06:53;3.20;;;1.00;;
19189;SDS011;9727;50.200;19.038;2024-03-29T07:09:20;2.63;;;1.30;;
19189;SDS011;9727;50.200;19.038;2024-03-29T07:11:48;2.23;;;1.13;;
19189;SDS011;9727;50.200;19.038;2024-03-29T07:14:16;1.60;;;0.90;;
19189;SDS011;9727;50.200;19.038;2024-03-29T07:16:43;2.13;;;1.00;;
19189;SDS011;9727;50.200;19.038;2024-03-29T07:19:08;2.27;;;1.00;;
19189;SDS011;9727;50.200;19.038;2024-03-29T07:21:39;1.63;;;1.00;;
19189;SDS011;9727;50.200;19.038;2024-03-29T07:24:08;3.73;;;1.10;;
19189;SDS011;9727;50.200;19.038;2024-03-29T07:26:34;2.57;;;1.00;;
19189;SDS011;9727;50.200;19.038;2024-03-29T07:29:01;2.57;;;1.20;;
19189;SDS011;9727;50.200;19.038;2024-03-29T07:31:31;1.67;;;1.00;;
19189;SDS011;9727;50.200;19.038;2024-03-29T07:33:58;2.13;;;1.30;;
19189;SDS011;9727;50.200;19.038;2024-03-29T07:36:25;1.60;;;0.90;;
19189;SDS011;9727;50.200;19.038;2024-03-29T07:38:56;1.83;;;1.17;;
19189;SDS011;9727;50.200;19.038;2024-03-29T07:41:22;4.10;;;1.10;;
19189;SDS011;9727;50.200;19.038;2024-03-29T07:43:53;2.20;;;1.20;;
19189;SDS011;9727;50.200;19.038;2024-03-29T07:46:22;3.40;;;1.00;;
19189;SDS011;9727;50.200;19.038;2024-03-29T07:48:52;2.17;;;0.90;;
19189;SDS011;9727;50.200;19.038;2024-03-29T07:51:22;3.57;;;1.10;;
19189;SDS011;9727;50.200;19.038;2024-03-29T07:53:48;1.93;;;1.10;;
19189;SDS011;9727;50.200;19.038;2024-03-29T07:56:17;2.60;;;1.10;;
19189;SDS011;9727;50.200;19.038;2024-03-29T07:58:43;2.80;;;1.30;;
19189;SDS011;9727;50.200;19.038;2024-03-29T08:01:10;1.77;;;1.20;;
19189;SDS011;9727;50.200;19.038;2024-03-29T08:03:36;1.13;;;0.90;;
19189;SDS011;9727;50.200;19.038;2024-03-29T08:06:04;2.47;;;0.90;;
19189;SDS011;9727;50.200;19.038;2024-03-29T08:08:31;1.20;;;0.80;;
19189;SDS011;9727;50.200;19.038;2024-03-29T08:10:58;1.87;;;0.80;;
19189;SDS011;9727;50.200;19.038;2024-03-29T08:13:26;1.77;;;0.90;;
19189;SDS011;9727;50.200;19.038;2024-03-29T08:15:58;1.20;;;0.73;;
19189;SDS011;9727;50.200;19.038;2024-03-29T08:18:25;2.17;;;0.80;;
19189;SDS011;9727;50.200;19.038;2024-03-29T08:20:52;4.10;;;0.90;;
19189;SDS011;9727;50.200;19.038;2024-03-29T08:23:25;1.33;;;0.80;;
19189;SDS011;9727;50.200;19.038;2024-03-29T08:25:54;2.23;;;1.00;;
19189;SDS011;9727;50.200;19.038;2024-03-29T08:28:22;1.53;;;0.80;;
19189;SDS011;9727;50.200;19.038;2024-03-29T08:30:57;2.50;;;1.00;;
19189;SDS011;9727;50.200;19.038;2024-03-29T08:33:23;1.17;;;0.80;;
19189;SDS011;9727;50.200;19.038;2024-03-29T08:35:53;2.10;;;0.83;;
19189;SDS011;9727;50.200;19.038;2024-03-29T08:38:20;2.17;;;1.00;;
19189;SDS011;9727;50.200;19.038;2024-03-29T08:40:48;4.07;;;1.00;;
19189;SDS011;9727;50.200;19.038;2024-03-29T08:43:15;1.33;;;0.63;;
19189;SDS011;9727;50.200;19.038;2024-03-29T08:45:43;3.60;;;1.00;;
19189;SDS011;9727;50.200;19.038;2024-03-29T08:48:09;2.37;;;0.90;;
19189;SDS011;9727;50.200;19.038;2024-03-29T08:50:36;1.10;;;0.80;;
19189;SDS011;9727;50.200;19.038;2024-03-29T08:53:03;2.73;;;0.80;;
19189;SDS011;9727;50.200;19.038;2024-03-29T08:55:29;1.80;;;0.97;;
19189;SDS011;9727;50.200;19.038;2024-03-29T08:58:01;2.37;;;1.00;;
19189;SDS011;9727;50.200;19.038;2024-03-29T09:00:28;0.97;;;0.67;;
19189;SDS011;9727;50.200;19.038;2024-03-29T09:02:55;1.43;;;0.80;;
19189;SDS011;9727;50.200;19.038;2024-03-29T09:05:22;3.07;;;0.77;;
19189;SDS011;9727;50.200;19.038;2024-03-29T09:07:49;2.47;;;0.87;;
19189;SDS011;9727;50.200;19.038;2024-03-29T09:10:18;2.07;;;0.90;;
19189;SDS011;9727;50.200;19.038;2024-03-29T09:12:44;1.73;;;0.70;;
19189;SDS011;9727;50.200;19.038;2024-03-29T09:15:14;1.70;;;0.80;;
19189;SDS011;9727;50.200;19.038;2024-03-29T09:17:42;2.57;;;0.80;;
19189;SDS011;9727;50.200;19.038;2024-03-29T09:20:09;1.50;;;0.90;;
19189;SDS011;9727;50.200;19.038;2024-03-29T09:22:36;1.63;;;0.90;;
19189;SDS011;9727;50.200;19.038;2024-03-29T09:25:03;1.43;;;0.60;;
19189;SDS011;9727;50.200;19.038;2024-03-29T09:27:30;2.13;;;0.67;;
19189;SDS011;9727;50.200;19.038;2024-03-29T09:29:58;1.03;;;0.60;;
19189;SDS011;9727;50.200;19.038;2024-03-29T09:32:26;3.70;;;0.70;;
19189;SDS011;9727;50.200;19.038;2024-03-29T09:34:53;1.20;;;0.60;;
19189;SDS011;9727;50.200;19.038;2024-03-29T09:37:19;3.13;;;0.90;;
19189;SDS011;9727;50.200;19.038;2024-03-29T09:39:46;2.03;;;0.73;;
19189;SDS011;9727;50.200;19.038;2024-03-29T09:42:16;1.90;;;0.90;;
19189;SDS011;9727;50.200;19.038;2024-03-29T09:44:43;1.43;;;0.80;;
19189;SDS011;9727;50.200;19.038;2024-03-29T09:47:11;1.47;;;0.70;;
19189;SDS011;9727;50.200;19.038;2024-03-29T09:49:42;1.63;;;0.70;;
19189;SDS011;9727;50.200;19.038;2024-03-29T09:52:09;1.37;;;0.70;;
19189;SDS011;9727;50.200;19.038;2024-03-29T09:54:36;1.67;;;0.80;;
19189;SDS011;9727;50.200;19.038;2024-03-29T09:57:03;1.60;;;0.80;;
19189;SDS011;9727;50.200;19.038;2024-03-29T09:59:30;1.97;;;0.90;;
19189;SDS011;9727;50.200;19.038;2024-03-29T10:01:59;2.37;;;0.77;;
19189;SDS011;9727;50.200;19.038;2024-03-29T10:04:26;1.53;;;0.83;;
19189;SDS011;9727;50.200;19.038;2024-03-29T10:06:55;4.07;;;0.80;;
19189;SDS011;9727;50.200;19.038;2024-03-29T10:09:22;1.87;;;0.80;;
19189;SDS011;9727;50.200;19.038;2024-03-29T10:11:52;2.73;;;0.60;;
19189;SDS011;9727;50.200;19.038;2024-03-29T10:14:20;1.90;;;0.77;;
19189;SDS011;9727;50.200;19.038;2024-03-29T10:16:48;1.77;;;0.57;;
19189;SDS011;9727;50.200;19.038;2024-03-29T10:19:20;0.87;;;0.57;;
19189;SDS011;9727;50.200;19.038;2024-03-29T10:21:47;2.03;;;0.77;;
19189;SDS011;9727;50.200;19.038;2024-03-29T10:24:19;2.70;;;0.80;;
19189;SDS011;9727;50.200;19.038;2024-03-29T10:26:46;1.77;;;0.50;;
19189;SDS011;9727;50.200;19.038;2024-03-29T10:29:15;2.43;;;0.60;;
19189;SDS011;9727;50.200;19.038;2024-03-29T10:31:42;2.03;;;0.70;;
19189;SDS011;9727;50.200;19.038;2024-03-29T10:34:09;1.30;;;0.60;;
19189;SDS011;9727;50.200;19.038;2024-03-29T10:36:35;3.60;;;0.60;;
19189;SDS011;9727;50.200;19.038;2024-03-29T10:39:02;0.80;;;0.70;;
19189;SDS011;9727;50.200;19.038;2024-03-29T10:41:30;1.20;;;0.50;;
19189;SDS011;9727;50.200;19.038;2024-03-29T10:43:56;2.50;;;0.60;;
19189;SDS011;9727;50.200;19.038;2024-03-29T10:46:23;0.60;;;0.57;;
19189;SDS011;9727;50.200;19.038;2024-03-29T10:48:54;3.60;;;0.90;;
19189;SDS011;9727;50.200;19.038;2024-03-29T10:51:21;2.40;;;0.60;;
19189;SDS011;9727;50.200;19.038;2024-03-29T10:53:52;1.50;;;0.60;;
19189;SDS011;9727;50.200;19.038;2024-03-29T10:56:20;1.77;;;0.60;;
19189;SDS011;9727;50.200;19.038;2024-03-29T10:58:50;1.43;;;0.70;;
19189;SDS011;9727;50.200;19.038;2024-03-29T11:01:20;2.07;;;0.80;;
19189;SDS011;9727;50.200;19.038;2024-03-29T11:03:49;2.03;;;0.60;;
19189;SDS011;9727;50.200;19.038;2024-03-29T11:06:21;1.60;;;0.60;;
19189;SDS011;9727;50.200;19.038;2024-03-29T11:08:49;1.13;;;0.50;;
19189;SDS011;9727;50.200;19.038;2024-03-29T11:11:18;1.30;;;0.60;;
19189;SDS011;9727;50.200;19.038;2024-03-29T11:13:56;2.83;;;0.60;;
19189;SDS011;9727;50.200;19.038;2024-03-29T11:16:24;1.53;;;0.67;;
19189;SDS011;9727;50.200;19.038;2024-03-29T11:18:51;1.40;;;0.60;;
19189;SDS011;9727;50.200;19.038;2024-03-29T11:21:22;1.63;;;0.63;;
19189;SDS011;9727;50.200;19.038;2024-03-29T11:23:53;1.17;;;0.50;;
19189;SDS011;9727;50.200;19.038;2024-03-29T11:26:22;0.60;;;0.40;;
19189;SDS011;9727;50.200;19.038;2024-03-29T11:28:59;1.03;;;0.50;;
19189;SDS011;9727;50.200;19.038;2024-03-29T11:31:26;2.20;;;0.50;;
19189;SDS011;9727;50.200;19.038;2024-03-29T11:33:52;1.27;;;0.50;;
19189;SDS011;9727;50.200;19.038;2024-03-29T11:36:21;0.97;;;0.60;;
19189;SDS011;9727;50.200;19.038;2024-03-29T11:38:50;0.60;;;0.50;;
19189;SDS011;9727;50.200;19.038;2024-03-29T11:41:23;0.57;;;0.40;;
19189;SDS011;9727;50.200;19.038;2024-03-29T11:43:53;2.73;;;0.50;;
19189;SDS011;9727;50.200;19.038;2024-03-29T11:46:21;2.67;;;0.60;;
19189;SDS011;9727;50.200;19.038;2024-03-29T11:48:48;2.33;;;0.60;;
19189;SDS011;9727;50.200;19.038;2024-03-29T11:51:24;0.70;;;0.50;;
19189;SDS011;9727;50.200;19.038;2024-03-29T11:53:52;0.53;;;0.50;;
19189;SDS011;9727;50.200;19.038;2024-03-29T11:56:23;1.90;;;0.50;;
19189;SDS011;9727;50.200;19.038;2024-03-29T11:58:58;0.40;;;0.40;;
19189;SDS011;9727;50.200;19.038;2024-03-29T12:01:27;2.93;;;0.70;;
19189;SDS011;9727;50.200;19.038;2024-03-29T12:03:57;0.60;;;0.43;;
19189;SDS011;9727;50.200;19.038;2024-03-29T12:06:24;2.53;;;0.50;;
19189;SDS011;9727;50.200;19.038;2024-03-29T12:08:51;1.50;;;0.60;;
19189;SDS011;9727;50.200;19.038;2024-03-29T12:11:21;1.20;;;0.57;;
19189;SDS011;9727;50.200;19.038;2024-03-29T12:13:47;2.17;;;0.50;;
19189;SDS011;9727;50.200;19.038;2024-03-29T12:16:14;1.10;;;0.70;;
19189;SDS011;9727;50.200;19.038;2024-03-29T12:18:46;0.70;;;0.57;;
19189;SDS011;9727;50.200;19.038;2024-03-29T12:21:15;2.23;;;0.70;;
19189;SDS011;9727;50.200;19.038;2024-03-29T12:23:46;2.83;;;0.50;;
19189;SDS011;9727;50.200;19.038;2024-03-29T12:26:17;0.53;;;0.40;;
19189;SDS011;9727;50.200;19.038;2024-03-29T12:28:47;1.10;;;0.60;;
19189;SDS011;9727;50.200;19.038;2024-03-29T12:31:14;2.13;;;0.60;;
19189;SDS011;9727;50.200;19.038;2024-03-29T12:33:54;2.20;;;0.50;;
19189;SDS011;9727;50.200;19.038;2024-03-29T12:36:22;1.80;;;0.60;;
19189;SDS011;9727;50.200;19.038;2024-03-29T12:38:53;1.10;;;0.60;;
19189;SDS011;9727;50.200;19.038;2024-03-29T12:41:23;4.13;;;0.60;;
19189;SDS011;9727;50.200;19.038;2024-03-29T12:43:53;1.83;;;0.63;;
19189;SDS011;9727;50.200;19.038;2024-03-29T12:46:23;1.33;;;0.60;;
19189;SDS011;9727;50.200;19.038;2024-03-29T12:48:58;1.80;;;0.67;;
19189;SDS011;9727;50.200;19.038;2024-03-29T12:51:24;2.90;;;0.70;;
19189;SDS011;9727;50.200;19.038;2024-03-29T12:53:54;2.37;;;0.60;;
19189;SDS011;9727;50.200;19.038;2024-03-29T12:56:20;1.70;;;0.50;;
19189;SDS011;9727;50.200;19.038;2024-03-29T12:58:47;1.63;;;0.60;;
19189;SDS011;9727;50.200;19.038;2024-03-29T13:01:16;1.33;;;0.63;;
19189;SDS011;9727;50.200;19.038;2024-03-29T13:03:44;1.07;;;0.50;;
19189;SDS011;9727;50.200;19.038;2024-03-29T13:06:14;3.07;;;0.70;;
19189;SDS011;9727;50.200;19.038;2024-03-29T13:08:41;1.33;;;0.60;;
19189;SDS011;9727;50.200;19.038;2024-03-29T13:11:08;1.03;;;0.70;;
19189;SDS011;9727;50.200;19.038;2024-03-29T13:13:41;1.93;;;0.80;;
19189;SDS011;9727;50.200;19.038;2024-03-29T13:16:08;2.00;;;0.73;;
19189;SDS011;9727;50.200;19.038;2024-03-29T13:18:35;2.08;;;0.80;;
19189;SDS011;9727;50.200;19.038;2024-03-29T13:21:01;1.40;;;0.57;;
19189;SDS011;9727;50.200;19.038;2024-03-29T13:26:15;1.70;;;0.73;;
19189;SDS011;9727;50.200;19.038;2024-03-29T13:28:42;2.95;;;0.77;;
19189;SDS011;9727;50.200;19.038;2024-03-29T13:31:08;2.47;;;0.60;;
19189;SDS011;9727;50.200;19.038;2024-03-29T13:33:35;3.10;;;0.75;;
19189;SDS011;9727;50.200;19.038;2024-03-29T13:36:02;3.47;;;1.02;;
19189;SDS011;9727;50.200;19.038;2024-03-29T13:38:29;1.85;;;0.80;;
19189;SDS011;9727;50.200;19.038;2024-03-29T13:40:55;4.10;;;0.80;;
19189;SDS011;9727;50.200;19.038;2024-03-29T13:43:24;1.70;;;0.63;;
19189;SDS011;9727;50.200;19.038;2024-03-29T13:45:51;2.33;;;0.60;;
19189;SDS011;9727;50.200;19.038;2024-03-29T13:48:21;3.88;;;0.80;;
19189;SDS011;9727;50.200;19.038;2024-03-29T13:50:47;2.30;;;0.60;;
19189;SDS011;9727;50.200;19.038;2024-03-29T13:53:16;4.85;;;1.30;;
19189;SDS011;9727;50.200;19.038;2024-03-29T13:55:43;2.88;;;1.00;;
19189;SDS011;9727;50.200;19.038;2024-03-29T13:58:09;1.88;;;0.80;;
19189;SDS011;9727;50.200;19.038;2024-03-29T14:00:37;3.37;;;0.70;;
19189;SDS011;9727;50.200;19.038;2024-03-29T14:03:04;2.63;;;0.90;;
19189;SDS011;9727;50.200;19.038;2024-03-29T14:05:30;3.20;;;0.73;;
19189;SDS011;9727;50.200;19.038;2024-03-29T14:07:57;2.60;;;0.80;;
19189;SDS011;9727;50.200;19.038;2024-03-29T14:10:24;2.40;;;0.90;;
19189;SDS011;9727;50.200;19.038;2024-03-29T14:12:51;2.95;;;0.73;;
19189;SDS011;9727;50.200;19.038;2024-03-29T14:15:19;2.23;;;0.87;;
19189;SDS011;9727;50.200;19.038;2024-03-29T14:17:47;2.47;;;1.00;;
19189;SDS011;9727;50.200;19.038;2024-03-29T14:20:16;2.90;;;0.80;;
19189;SDS011;9727;50.200;19.038;2024-03-29T14:22:43;2.40;;;0.75;;
19189;SDS011;9727;50.200;19.038;2024-03-29T14:25:10;3.28;;;0.80;;
19189;SDS011;9727;50.200;19.038;2024-03-29T14:27:37;6.43;;;1.25;;
19189;SDS011;9727;50.200;19.038;2024-03-29T14:30:15;1.93;;;0.90;;
19189;SDS011;9727;50.200;19.038;2024-03-29T14:32:45;4.55;;;1.02;;
19189;SDS011;9727;50.200;19.038;2024-03-29T14:35:17;2.33;;;1.00;;
19189;SDS011;9727;50.200;19.038;2024-03-29T14:37:43;2.90;;;0.73;;
19189;SDS011;9727;50.200;19.038;2024-03-29T14:40:10;4.25;;;1.02;;
19189;SDS011;9727;50.200;19.038;2024-03-29T14:42:40;2.88;;;1.02;;
19189;SDS011;9727;50.200;19.038;2024-03-29T14:45:07;3.05;;;0.90;;
19189;SDS011;9727;50.200;19.038;2024-03-29T14:47:36;2.47;;;0.90;;
19189;SDS011;9727;50.200;19.038;2024-03-29T14:50:03;2.95;;;0.95;;
19189;SDS011;9727;50.200;19.038;2024-03-29T14:52:34;2.78;;;0.80;;